Time;durP1;ratioP1;P1;durP2;ratioP2;P2;SDS_P1;SDS_P2;PMS_P1;PMS_P2;Temp;Humidity;BMP_temperature;BMP_pressure;BME280_temperature;BME280_humidity;BME280_pressure;Samples;Min_cycle;Max_cycle;Signal;HPM_P1;HPM_P2
2024/02/12 00:02:18;;;;;;;;;;;;;;;11.91;100.00;97532.59;5069736;28;19913;-77
2024/02/12 00:04:43;;;;;;;;;;;;;;;11.77;100.00;97528.53;5071175;28;19917;-78
2024/02/12 00:07:09;;;;;;;;;;;;;;;11.70;100.00;97531.63;5071043;28;19923;-78
2024/02/12 00:09:34;;;;;;;;;;;;;;;11.54;100.00;97538.34;5070754;28;19916;-77
2024/02/12 00:12:00;;;;;;;;;;;;;;;11.36;100.00;97532.94;5073577;28;20089;-78
2024/02/12 00:14:26;;;;;;;;;;;;;;;11.19;100.00;97515.97;5073023;28;20269;-77
2024/02/12 00:16:52;;;;;;;;;;;;;;;11.14;100.00;97526.91;5073693;28;19924;-78
2024/02/12 00:19:17;;;;;;;;;;;;;;;11.15;100.00;97534.72;5073225;28;20011;-78
2024/02/12 00:21:45;;;;;;;;;;;;;;;11.14;100.00;97538.75;5073272;28;19920;-78
2024/02/12 00:24:10;;;;;;;;;;;;;;;11.17;100.00;97548.09;5073023;28;19920;-77
2024/02/12 00:26:40;;;;;;;;;;;;;;;11.29;100.00;97552.63;5073127;28;20377;-77
2024/02/12 00:29:08;;;;;;;;;;;;;;;11.34;100.00;97547.22;5074990;28;20265;-77
2024/02/12 00:31:33;;;;;;;;;;;;;;;11.39;100.00;97537.53;5073259;28;19912;-77
2024/02/12 00:33:59;;;;;;;;;;;;;;;11.40;100.00;97539.03;5073111;28;20007;-77
2024/02/12 00:36:24;;;;;;;;;;;;;;;11.43;100.00;97538.88;5073130;28;19950;-78
2024/02/12 00:38:49;;;;;;;;;;;;;;;11.41;100.00;97535.03;5072920;28;19913;-76
2024/02/12 00:41:15;;;;;;;;;;;;;;;11.40;100.00;97534.28;5073055;28;19916;-77
2024/02/12 00:43:41;;;;;;;;;;;;;;;11.32;100.00;97529.59;5074365;28;20385;-78
2024/02/12 00:46:08;;;;;;;;;;;;;;;11.28;100.00;97532.50;5072824;28;20384;-77
2024/02/12 00:48:35;;;;;;;;;;;;;;;11.35;100.00;97526.63;5056243;28;19942;-77
2024/02/12 00:51:01;;;;;;;;;;;;;;;11.41;100.00;97519.22;5073929;28;20136;-77
2024/02/12 00:53:26;;;;;;;;;;;;;;;11.45;100.00;97532.88;5072493;28;19912;-78
2024/02/12 00:55:51;;;;;;;;;;;;;;;11.43;100.00;97530.59;5072513;28;19981;-79
2024/02/12 00:58:16;;;;;;;;;;;;;;;11.39;100.00;97521.69;5072603;28;20028;-78
2024/02/12 01:00:42;;;;;;;;;;;;;;;11.36;100.00;97530.94;5072655;28;19978;-78
2024/02/12 01:03:07;;;;;;;;;;;;;;;11.27;100.00;97517.16;5072692;28;19912;-78
2024/02/12 01:05:32;;;;;;;;;;;;;;;11.22;100.00;97517.03;5073895;28;19917;-78
2024/02/12 01:07:58;;;;;;;;;;;;;;;11.12;100.00;97510.78;5071907;28;20354;-78
2024/02/12 01:10:23;;;;;;;;;;;;;;;11.13;100.00;97515.09;5072176;28;19926;-77
2024/02/12 01:12:49;;;;;;;;;;;;;;;11.14;100.00;97511.09;5072336;28;19917;-78
2024/02/12 01:15:15;;;;;;;;;;;;;;;11.06;100.00;97490.56;5072552;28;19912;-78
2024/02/12 01:17:41;;;;;;;;;;;;;;;10.96;100.00;97492.63;5073582;28;20303;-78
2024/02/12 01:20:11;;;;;;;;;;;;;;;10.95;100.00;97496.59;5072278;28;20491;-78
2024/02/12 01:22:38;;;;;;;;;;;;;;;10.86;100.00;97504.16;5071285;28;19912;-78
2024/02/12 01:25:04;;;;;;;;;;;;;;;10.85;100.00;97495.09;5072082;28;19916;-77
2024/02/12 01:27:30;;;;;;;;;;;;;;;10.87;100.00;97500.16;5072256;28;20394;-77
2024/02/12 01:29:55;;;;;;;;;;;;;;;10.88;100.00;97498.94;5073427;28;19912;-77
2024/02/12 01:32:20;;;;;;;;;;;;;;;10.86;99.16;97488.34;5071987;28;19916;-77
2024/02/12 01:34:46;;;;;;;;;;;;;;;10.82;99.18;97490.53;5071549;28;19919;-77
2024/02/12 01:37:11;;;;;;;;;;;;;;;10.71;98.80;97492.25;5072019;28;19968;-76
2024/02/12 01:39:36;;;;;;;;;;;;;;;10.64;99.89;97493.34;5073161;28;19913;-77
2024/02/12 01:42:08;;;;;;;;;;;;;;;10.51;98.93;97493.56;5073315;28;19916;-77
2024/02/12 01:44:34;;;;;;;;;;;;;;;10.49;99.79;97484.97;5071753;28;19912;-76
2024/02/12 01:46:59;;;;;;;;;;;;;;;10.45;98.72;97483.59;5071884;28;19919;-77
2024/02/12 01:49:26;;;;;;;;;;;;;;;10.40;100.00;97487.00;5071436;28;19956;-76
2024/02/12 01:51:51;;;;;;;;;;;;;;;10.31;100.00;97490.53;5072928;28;19923;-75
2024/02/12 01:54:17;;;;;;;;;;;;;;;10.25;100.00;97492.38;5072388;28;19916;-77
2024/02/12 01:56:45;;;;;;;;;;;;;;;10.31;100.00;97501.56;5071613;28;20014;-77
2024/02/12 01:59:17;;;;;;;;;;;;;;;10.27;100.00;97495.47;5071484;28;19924;-77
2024/02/12 02:01:44;;;;;;;;;;;;;;;10.25;100.00;97489.63;5071780;28;20343;-79
2024/02/12 02:04:09;;;;;;;;;;;;;;;10.23;99.87;97489.34;5072600;28;19918;-77
2024/02/12 02:06:36;;;;;;;;;;;;;;;10.22;99.82;97485.03;5072377;28;19920;-78
2024/02/12 02:09:01;;;;;;;;;;;;;;;10.23;100.00;97496.84;5072819;28;19924;-78
2024/02/12 02:11:27;;;;;;;;;;;;;;;10.25;99.68;97489.63;5071406;28;20022;-78
2024/02/12 02:13:52;;;;;;;;;;;;;;;10.27;99.61;97489.94;5070925;28;20003;-77
2024/02/12 02:16:17;;;;;;;;;;;;;;;10.17;100.00;97485.66;5072528;28;19917;-76
2024/02/12 02:18:46;;;;;;;;;;;;;;;10.14;100.00;97492.84;5072404;28;20437;-76
2024/02/12 02:21:12;;;;;;;;;;;;;;;10.00;100.00;97492.72;5070871;28;19913;-78
2024/02/12 02:23:41;;;;;;;;;;;;;;;10.00;100.00;97485.22;5054273;28;19916;-77
2024/02/12 02:26:06;;;;;;;;;;;;;;;9.92;100.00;97472.19;5071059;28;20353;-77
2024/02/12 02:28:31;;;;;;;;;;;;;;;9.88;100.00;97474.34;5071009;28;20011;-76
2024/02/12 02:30:57;;;;;;;;;;;;;;;9.77;100.00;97472.81;5070886;28;19913;-77
2024/02/12 02:33:22;;;;;;;;;;;;;;;9.77;100.00;97480.31;5071033;28;19912;-76
2024/02/12 02:35:48;;;;;;;;;;;;;;;9.69;100.00;97498.41;5070433;28;19912;-76
2024/02/12 02:38:13;;;;;;;;;;;;;;;9.65;100.00;97495.78;5070892;28;20384;-76
2024/02/12 02:40:39;;;;;;;;;;;;;;;9.54;100.00;97492.72;5070755;28;19915;-77
2024/02/12 02:43:04;;;;;;;;;;;;;;;9.54;100.00;97498.25;5071923;28;19916;-77
2024/02/12 02:45:30;;;;;;;;;;;;;;;9.54;100.00;97506.50;5071680;28;19916;-77
2024/02/12 02:47:56;;;;;;;;;;;;;;;9.54;100.00;97514.00;5070525;28;20355;-77
2024/02/12 02:50:22;;;;;;;;;;;;;;;9.49;100.00;97523.66;5070518;28;19908;-77
2024/02/12 02:52:48;;;;;;;;;;;;;;;9.52;100.00;97528.28;5070246;28;20296;-78
2024/02/12 02:55:16;;;;;;;;;;;;;;;9.54;100.00;97528.56;5070509;28;20413;-77
2024/02/12 02:57:44;;;;;;;;;;;;;;;9.53;100.00;97529.03;5069925;28;19916;-77
2024/02/12 03:00:09;;;;;;;;;;;;;;;9.46;100.00;97532.88;5070475;28;19912;-76
2024/02/12 03:02:35;;;;;;;;;;;;;;;9.36;100.00;97531.28;5071549;28;19968;-77
2024/02/12 03:05:01;;;;;;;;;;;;;;;9.36;100.00;97528.53;5071518;28;19917;-77
2024/02/12 03:07:26;;;;;;;;;;;;;;;9.29;100.00;97540.63;5071483;28;19916;-79
2024/02/12 03:09:51;;;;;;;;;;;;;;;9.30;100.00;97553.19;5071473;28;20277;-76
2024/02/12 03:12:18;;;;;;;;;;;;;;;9.19;100.00;97558.38;5070346;28;19918;-76
2024/02/12 03:14:43;;;;;;;;;;;;;;;9.13;100.00;97559.41;5070198;28;19912;-76
2024/02/12 03:17:08;;;;;;;;;;;;;;;9.02;100.00;97572.84;5071543;28;19999;-76
2024/02/12 03:19:33;;;;;;;;;;;;;;;8.95;100.00;97587.66;5070409;28;20372;-75
2024/02/12 03:21:59;;;;;;;;;;;;;;;8.93;100.00;97595.59;5071553;28;19917;-78
2024/02/12 03:24:26;;;;;;;;;;;;;;;8.73;100.00;97590.47;5070555;28;19916;-78
2024/02/12 03:26:51;;;;;;;;;;;;;;;8.83;100.00;97603.06;5070001;28;19923;-76
2024/02/12 03:29:18;;;;;;;;;;;;;;;8.73;100.00;97598.75;5071330;28;19908;-76
2024/02/12 03:31:44;;;;;;;;;;;;;;;8.68;100.00;97591.03;5071216;28;19909;-77
2024/02/12 03:34:09;;;;;;;;;;;;;;;8.67;100.00;97600.53;5071339;28;20399;-77
2024/02/12 03:36:39;;;;;;;;;;;;;;;8.61;100.00;97599.59;5069982;28;20304;-78
2024/02/12 03:39:07;;;;;;;;;;;;;;;8.62;100.00;97603.84;5071538;28;20011;-78
2024/02/12 03:41:32;;;;;;;;;;;;;;;8.59;100.00;97593.75;5070838;28;19920;-77
2024/02/12 03:43:57;;;;;;;;;;;;;;;8.61;100.00;97596.06;5055365;28;19916;-77
2024/02/12 03:46:28;;;;;;;;;;;;;;;8.69;100.00;97598.09;5079243;28;19937;-78
2024/02/12 03:59:53;;;;;;;;;;;;;;;8.68;100.00;97540.72;5087909;28;19963;-78
2024/02/12 04:02:19;;;;;;;;;;;;;;;8.68;100.00;97546.97;5083795;28;19917;-78
2024/02/12 04:04:44;;;;;;;;;;;;;;;8.78;100.00;97543.06;5073900;28;19958;-77
2024/02/12 04:07:10;;;;;;;;;;;;;;;8.84;100.00;97529.47;5075045;28;19947;-77
2024/02/12 04:09:41;;;;;;;;;;;;;;;8.84;100.00;97512.94;5073654;28;20006;-78
2024/02/12 04:12:11;;;;;;;;;;;;;;;8.86;100.00;97525.03;5073855;28;19916;-78
2024/02/12 04:14:36;;;;;;;;;;;;;;;8.85;100.00;97534.53;5073573;28;19959;-77
2024/02/12 04:17:03;;;;;;;;;;;;;;;8.87;100.00;97529.31;5073101;28;20349;-75
2024/02/12 04:19:29;;;;;;;;;;;;;;;8.90;100.00;97524.91;5074820;28;19976;-77
2024/02/12 04:21:55;;;;;;;;;;;;;;;8.89;100.00;97518.63;5072447;28;20007;-76
2024/02/12 04:24:23;;;;;;;;;;;;;;;8.92;100.00;97512.19;5062775;28;19958;-78
2024/02/12 04:26:48;;;;;;;;;;;;;;;8.85;100.00;97501.47;5073363;28;19920;-76
2024/02/12 04:29:14;;;;;;;;;;;;;;;8.99;100.00;97489.09;5075031;28;20307;-79
2024/02/12 04:31:39;;;;;;;;;;;;;;;8.95;100.00;97492.03;5073140;28;19913;-77
2024/02/12 04:34:07;;;;;;;;;;;;;;;8.95;100.00;97494.00;5056440;28;19913;-78
2024/02/12 04:36:37;;;;;;;;;;;;;;;8.87;100.00;97485.25;5072929;28;20005;-78
2024/02/12 04:39:04;;;;;;;;;;;;;;;8.97;100.00;97470.31;5073385;28;19923;-77
2024/02/12 04:41:29;;;;;;;;;;;;;;;8.94;100.00;97446.41;5072712;28;19912;-78
2024/02/12 04:43:55;;;;;;;;;;;;;;;8.90;100.00;97465.06;5056275;28;19923;-76
2024/02/12 04:46:20;;;;;;;;;;;;;;;8.99;100.00;97498.16;5073441;28;19916;-76
2024/02/12 04:48:45;;;;;;;;;;;;;;;9.11;100.00;97499.25;5074295;28;19918;-77
2024/02/12 04:51:11;;;;;;;;;;;;;;;9.14;100.00;97490.06;5074075;28;20296;-77
2024/02/12 04:53:36;;;;;;;;;;;;;;;9.10;100.00;97486.69;5073117;28;19916;-77
2024/02/12 04:56:03;;;;;;;;;;;;;;;9.09;100.00;97482.41;5071689;28;20493;-78
2024/02/12 04:58:28;;;;;;;;;;;;;;;9.09;100.00;97487.16;5072930;28;19912;-77
2024/02/12 05:00:54;;;;;;;;;;;;;;;9.14;100.00;97483.81;5073964;28;20380;-78
2024/02/12 05:03:20;;;;;;;;;;;;;;;9.04;100.00;97480.28;5073007;28;19920;-78
2024/02/12 05:05:46;;;;;;;;;;;;;;;9.02;100.00;97490.19;5073835;28;19920;-78
2024/02/12 05:08:11;;;;;;;;;;;;;;;8.99;100.00;97484.38;5073917;28;19917;-77
2024/02/12 05:10:37;;;;;;;;;;;;;;;8.87;100.00;97477.00;5072428;28;20087;-78
2024/02/12 05:13:02;;;;;;;;;;;;;;;8.87;100.00;97481.72;5055673;28;20311;-77
2024/02/12 05:15:30;;;;;;;;;;;;;;;8.82;100.00;97482.31;5073715;28;19919;-78
2024/02/12 05:18:06;;;;;;;;;;;;;;;8.85;100.00;97476.69;5072375;28;20433;-78
2024/02/12 05:23:16;;;;;;;;;;;;;;;8.89;100.00;97471.03;5073937;28;20416;-78
2024/02/12 05:25:43;;;;;;;;;;;;;;;8.94;100.00;97470.44;5072309;28;19913;-78
2024/02/12 05:28:08;;;;;;;;;;;;;;;8.91;100.00;97474.09;5073800;28;19991;-77
2024/02/12 05:30:34;;;;;;;;;;;;;;;8.93;100.00;97480.69;5072204;28;20012;-78
2024/02/12 05:33:00;;;;;;;;;;;;;;;8.97;100.00;97464.78;5072668;28;19912;-78
2024/02/12 05:35:26;;;;;;;;;;;;;;;8.99;100.00;97456.81;5072292;28;19912;-77
2024/02/12 05:37:51;;;;;;;;;;;;;;;9.02;100.00;97438.63;5072394;28;19975;-77
2024/02/12 05:40:18;;;;;;;;;;;;;;;8.95;100.00;97449.94;5072312;28;20011;-78
2024/02/12 05:42:43;;;;;;;;;;;;;;;8.88;100.00;97452.97;5071503;28;19939;-77
2024/02/12 05:45:09;;;;;;;;;;;;;;;8.72;100.00;97453.25;5068419;28;19912;-77
2024/02/12 05:47:34;;;;;;;;;;;;;;;8.63;100.00;97442.94;5055137;28;20322;-78
2024/02/12 05:50:00;;;;;;;;;;;;;;;8.45;100.00;97424.38;5072465;28;19939;-77
2024/02/12 05:52:25;;;;;;;;;;;;;;;8.46;100.00;97422.41;5073319;28;19912;-78
2024/02/12 05:54:51;;;;;;;;;;;;;;;8.47;100.00;97415.69;5073207;28;20008;-78
2024/02/12 05:57:16;;;;;;;;;;;;;;;8.55;100.00;97422.44;5055337;28;19913;-78
2024/02/12 05:59:41;;;;;;;;;;;;;;;8.58;100.00;97433.31;5073110;28;20092;-77
2024/02/12 06:02:07;;;;;;;;;;;;;;;8.71;100.00;97455.22;5072717;28;19916;-77
2024/02/12 06:04:32;;;;;;;;;;;;;;;8.73;100.00;97463.81;5073178;28;19914;-77
2024/02/12 06:07:00;;;;;;;;;;;;;;;8.76;100.00;97462.88;5053751;28;19927;-77
2024/02/12 06:09:27;;;;;;;;;;;;;;;8.93;100.00;97450.38;5081574;28;19974;-79
2024/02/12 06:11:53;;;;;;;;;;;;;;;9.06;100.00;97449.50;5051292;28;19920;-77
2024/02/12 06:14:18;;;;;;;;;;;;;;;9.16;100.00;97449.03;5068024;28;20280;-78
2024/02/12 06:16:44;;;;;;;;;;;;;;;9.24;100.00;97444.00;5068350;28;19913;-80
2024/02/12 06:19:09;;;;;;;;;;;;;;;9.15;100.00;97452.28;5068398;28;19908;-77
2024/02/12 06:21:37;;;;;;;;;;;;;;;9.10;100.00;97431.56;5068171;28;20752;-78
2024/02/12 06:24:03;;;;;;;;;;;;;;;9.26;100.00;97433.28;5067979;28;20381;-78
2024/02/12 06:26:28;;;;;;;;;;;;;;;9.37;100.00;97441.88;5039072;28;19919;-78
2024/02/12 06:28:54;;;;;;;;;;;;;;;9.32;100.00;97446.00;5068196;28;19963;-79
2024/02/12 06:31:19;;;;;;;;;;;;;;;9.28;100.00;97450.16;5068244;28;19967;-78
2024/02/12 06:33:44;;;;;;;;;;;;;;;9.21;100.00;97465.00;5068225;28;20365;-78
2024/02/12 06:36:10;;;;;;;;;;;;;;;9.40;100.00;97452.72;5052653;28;19920;-78
2024/02/12 06:38:35;;;;;;;;;;;;;;;9.34;100.00;97454.56;5052709;28;19931;-77
2024/02/12 06:41:00;;;;;;;;;;;;;;;9.33;100.00;97442.03;5067716;28;19952;-77
2024/02/12 06:43:26;;;;;;;;;;;;;;;9.36;100.00;97454.13;5068416;28;19917;-76
2024/02/12 06:45:51;;;;;;;;;;;;;;;9.37;100.00;97463.94;5068700;28;19919;-78
2024/02/12 06:48:17;;;;;;;;;;;;;;;9.23;100.00;97467.28;5053640;28;19917;-77
2024/02/12 06:50:42;;;;;;;;;;;;;;;9.37;100.00;97459.19;5068148;28;20335;-76
2024/02/12 06:53:08;;;;;;;;;;;;;;;9.51;100.00;97460.56;5052470;28;19916;-76
2024/02/12 06:55:34;;;;;;;;;;;;;;;9.51;100.00;97452.31;5051998;28;19999;-77
2024/02/12 06:57:59;;;;;;;;;;;;;;;9.64;100.00;97452.16;5067176;28;20385;-75
2024/02/12 07:00:24;;;;;;;;;;;;;;;9.76;100.00;97460.22;5067152;28;19982;-78
2024/02/12 07:02:50;;;;;;;;;;;;;;;9.85;100.00;97459.47;5067310;28;19912;-76
2024/02/12 07:05:17;;;;;;;;;;;;;;;9.89;100.00;97459.31;5068325;28;19919;-77
2024/02/12 07:07:45;;;;;;;;;;;;;;;9.91;100.00;97462.38;5062288;28;20025;-77
2024/02/12 07:10:11;;;;;;;;;;;;;;;9.75;100.00;97466.22;5071560;28;19943;-78
2024/02/12 07:12:38;;;;;;;;;;;;;;;9.85;100.00;97462.22;5070718;28;19981;-77
2024/02/12 07:15:04;;;;;;;;;;;;;;;9.89;100.00;97456.53;5071435;28;20364;-77
2024/02/12 07:17:30;;;;;;;;;;;;;;;9.88;100.00;97446.75;5071472;28;19912;-77
2024/02/12 07:19:56;;;;;;;;;;;;;;;9.93;100.00;97449.66;5069411;28;19985;-77
2024/02/12 07:22:21;;;;;;;;;;;;;;;10.06;100.00;97457.75;5071063;28;20376;-79
2024/02/12 07:24:51;;;;;;;;;;;;;;;10.00;100.00;97470.66;5069928;28;19908;-77
2024/02/12 07:27:18;;;;;;;;;;;;;;;10.02;100.00;97488.25;5071770;28;19931;-78
2024/02/12 07:29:43;;;;;;;;;;;;;;;9.98;100.00;97511.72;5071573;28;19966;-77
2024/02/12 07:32:09;;;;;;;;;;;;;;;9.89;100.00;97517.22;5071709;28;19912;-77
2024/02/12 07:34:35;;;;;;;;;;;;;;;10.06;100.00;97527.53;5071890;28;19912;-77
2024/02/12 07:37:00;;;;;;;;;;;;;;;10.13;100.00;97531.94;5071728;28;19916;-78
2024/02/12 07:39:25;;;;;;;;;;;;;;;10.11;100.00;97534.41;5071530;28;19924;-77
2024/02/12 07:41:51;;;;;;;;;;;;;;;10.27;100.00;97542.38;5071220;28;19921;-79
2024/02/12 07:44:16;;;;;;;;;;;;;;;10.32;100.00;97552.81;5070448;28;19916;-77
2024/02/12 07:46:41;;;;;;;;;;;;;;;10.34;100.00;97555.09;5071052;28;20289;-77
2024/02/12 07:49:07;;;;;;;;;;;;;;;10.34;100.00;97558.63;5071357;28;19909;-77
2024/02/12 07:51:33;;;;;;;;;;;;;;;10.42;100.00;97561.84;5071113;28;19916;-77
2024/02/12 07:53:58;;;;;;;;;;;;;;;10.43;100.00;97555.06;5070109;28;19908;-77
2024/02/12 07:56:23;;;;;;;;;;;;;;;10.43;100.00;97558.59;5069879;28;19912;-78
2024/02/12 07:58:52;;;;;;;;;;;;;;;10.33;100.00;97554.34;5071328;28;19962;-78
2024/02/12 08:01:17;;;;;;;;;;;;;;;10.47;100.00;97561.22;5070178;28;19923;-78
2024/02/12 08:03:42;;;;;;;;;;;;;;;10.54;100.00;97558.91;5069750;28;19913;-78
2024/02/12 08:06:09;;;;;;;;;;;;;;;10.66;100.00;97562.72;5070139;28;19938;-78
2024/02/12 08:08:34;;;;;;;;;;;;;;;10.81;100.00;97555.28;5071104;28;19967;-79
2024/02/12 08:11:00;;;;;;;;;;;;;;;10.99;100.00;97555.22;5071008;28;20000;-78
2024/02/12 08:13:25;;;;;;;;;;;;;;;11.17;100.00;97557.13;5071563;28;20017;-77
2024/02/12 08:15:50;;;;;;;;;;;;;;;11.38;100.00;97542.28;5079050;28;19919;-78
2024/02/12 08:18:15;;;;;;;;;;;;;;;11.38;99.21;97539.53;5075012;28;19958;-79
2024/02/12 08:20:41;;;;;;;;;;;;;;;11.22;98.45;97534.38;5069391;28;19918;-79
2024/02/12 08:23:06;;;;;;;;;;;;;;;11.26;99.27;97528.69;5049153;28;20407;-80
2024/02/12 08:25:31;;;;;;;;;;;;;;;11.17;100.00;97528.72;5057715;28;19919;-79
2024/02/12 08:27:57;;;;;;;;;;;;;;;11.18;100.00;97531.03;5071210;28;19916;-79
2024/02/12 08:30:22;;;;;;;;;;;;;;;11.22;100.00;97526.09;5070425;28;19916;-78
2024/02/12 08:32:48;;;;;;;;;;;;;;;11.52;100.00;97529.75;5073789;28;20445;-79
2024/02/12 08:35:13;;;;;;;;;;;;;;;11.89;100.00;97529.50;5073928;28;19916;-79
2024/02/12 08:37:39;;;;;;;;;;;;;;;12.09;100.00;97529.66;5074457;28;19916;-77
2024/02/12 08:40:05;;;;;;;;;;;;;;;12.44;100.00;97524.25;5073566;28;19916;-77
2024/02/12 08:42:31;;;;;;;;;;;;;;;12.45;98.84;97532.09;5055717;28;19969;-77
2024/02/12 08:44:56;;;;;;;;;;;;;;;12.78;98.91;97533.91;5072960;28;20364;-78
2024/02/12 08:47:21;;;;;;;;;;;;;;;13.09;96.60;97523.00;5071993;28;20378;-78
2024/02/12 08:49:46;;;;;;;;;;;;;;;13.31;94.34;97522.63;5046078;28;20025;-79
2024/02/12 08:52:12;;;;;;;;;;;;;;;13.53;91.49;97524.91;5073135;28;19932;-78
2024/02/12 08:54:37;;;;;;;;;;;;;;;13.66;92.75;97528.88;5072535;28;19917;-77
2024/02/12 08:57:05;;;;;;;;;;;;;;;13.62;90.63;97522.75;5074283;28;19912;-79
2024/02/12 08:59:31;;;;;;;;;;;;;;;13.65;87.37;97515.47;5072284;28;19958;-78
2024/02/12 09:01:57;;;;;;;;;;;;;;;13.70;88.03;97520.34;5056118;28;19912;-77
2024/02/12 09:04:23;;;;;;;;;;;;;;;13.59;87.50;97509.88;5074216;28;19930;-77
2024/02/12 09:06:48;;;;;;;;;;;;;;;13.51;87.82;97513.53;5072560;28;19926;-78
2024/02/12 09:09:14;;;;;;;;;;;;;;;13.12;92.97;97515.75;5073940;28;19919;-78
2024/02/12 09:11:41;;;;;;;;;;;;;;;12.95;92.80;97505.19;5074053;28;19993;-79
2024/02/12 09:14:06;;;;;;;;;;;;;;;13.00;97.00;97501.72;5072633;28;20023;-79
2024/02/12 09:16:32;;;;;;;;;;;;;;;13.02;93.24;97504.75;5073895;28;20003;-77
2024/02/12 09:18:57;;;;;;;;;;;;;;;13.10;90.27;97502.38;5073843;28;20384;-78
2024/02/12 09:21:22;;;;;;;;;;;;;;;13.32;88.43;97488.81;5073983;28;19999;-78
2024/02/12 09:23:47;;;;;;;;;;;;;;;13.33;82.72;97509.00;5072269;28;20693;-77
2024/02/12 09:26:13;;;;;;;;;;;;;;;13.42;84.70;97514.44;5073534;28;19947;-79
2024/02/12 09:28:38;;;;;;;;;;;;;;;13.42;86.74;97514.44;5073429;28;20368;-79
2024/02/12 09:31:04;;;;;;;;;;;;;;;13.39;82.16;97524.47;5072283;28;19955;-79
2024/02/12 09:33:29;;;;;;;;;;;;;;;13.45;79.18;97519.00;5072152;28;19912;-79
2024/02/12 09:35:55;;;;;;;;;;;;;;;13.47;81.92;97524.84;5072022;28;19916;-78
2024/02/12 09:38:20;;;;;;;;;;;;;;;13.69;79.20;97530.69;5073424;28;20463;-79
2024/02/12 09:40:46;;;;;;;;;;;;;;;13.65;83.82;97524.56;5052078;28;19913;-78
2024/02/12 09:43:13;;;;;;;;;;;;;;;13.83;87.07;97524.28;5064806;28;19970;-79
2024/02/12 09:45:42;;;;;;;;;;;;;;;13.99;83.32;97514.63;5073303;28;19920;-78
2024/02/12 09:48:09;;;;;;;;;;;;;;;14.12;76.01;97506.69;5072031;28;19931;-79
2024/02/12 09:50:35;;;;;;;;;;;;;;;14.16;74.61;97507.25;5070020;28;19947;-78
2024/02/12 09:53:01;;;;;;;;;;;;;;;14.07;76.39;97506.63;5054773;28;19912;-77
2024/02/12 09:55:28;;;;;;;;;;;;;;;14.02;74.58;97501.78;5072034;28;19920;-77
2024/02/12 09:57:53;;;;;;;;;;;;;;;13.88;75.55;97497.06;5071752;28;19962;-78
2024/02/12 10:00:19;;;;;;;;;;;;;;;14.10;79.49;97492.53;5072994;28;20346;-77
2024/02/12 10:02:51;;;;;;;;;;;;;;;14.27;78.69;97481.59;5071691;28;19912;-77
2024/02/12 10:05:17;;;;;;;;;;;;;;;14.24;71.83;97477.78;5071768;28;20356;-78
2024/02/12 10:07:42;;;;;;;;;;;;;;;14.27;69.99;97468.47;5071363;28;19958;-78
2024/02/12 10:10:08;;;;;;;;;;;;;;;14.33;69.66;97470.53;5072541;28;19920;-78
2024/02/12 10:12:37;;;;;;;;;;;;;;;14.27;69.37;97468.47;5073013;28;19916;-77
2024/02/12 10:15:02;;;;;;;;;;;;;;;14.33;69.40;97464.97;5072815;28;20380;-79
2024/02/12 10:17:28;;;;;;;;;;;;;;;14.28;69.79;97469.22;5078876;28;19935;-77
2024/02/12 10:19:53;;;;;;;;;;;;;;;14.30;68.59;97465.94;5073177;28;19908;-77
2024/02/12 10:22:20;;;;;;;;;;;;;;;14.35;69.00;97454.88;5070601;28;19909;-78
2024/02/12 10:24:45;;;;;;;;;;;;;;;14.39;68.66;97466.56;5053134;28;19909;-75
2024/02/12 10:27:11;;;;;;;;;;;;;;;14.38;66.07;97453.94;5053019;28;19919;-77
2024/02/12 10:29:38;;;;;;;;;;;;;;;14.34;64.61;97452.59;5071295;28;20300;-77
2024/02/12 10:32:04;;;;;;;;;;;;;;;14.43;67.18;97464.31;5070882;28;20009;-77
2024/02/12 10:34:33;;;;;;;;;;;;;;;14.57;61.50;97469.00;5070896;28;20384;-77
2024/02/12 10:37:00;;;;;;;;;;;;;;;14.62;62.89;97462.72;5054191;28;19951;-78
2024/02/12 10:39:27;;;;;;;;;;;;;;;14.61;60.84;97455.63;5071157;28;20273;-77
2024/02/12 10:41:55;;;;;;;;;;;;;;;14.73;63.34;97439.03;5071792;28;19915;-77
2024/02/12 10:44:22;;;;;;;;;;;;;;;14.70;63.63;97448.38;5072301;28;20003;-77
2024/02/12 10:46:49;;;;;;;;;;;;;;;14.85;62.50;97446.19;5071043;28;20455;-78
2024/02/12 10:49:15;;;;;;;;;;;;;;;14.93;58.29;97438.94;5054519;28;19912;-77
2024/02/12 10:51:41;;;;;;;;;;;;;;;14.88;60.13;97442.44;5071917;28;21089;-77
2024/02/12 10:54:07;;;;;;;;;;;;;;;14.88;58.82;97437.63;5072101;28;19923;-76
2024/02/12 10:56:34;;;;;;;;;;;;;;;14.96;59.25;97435.91;5071769;28;19912;-78
2024/02/12 10:58:59;;;;;;;;;;;;;;;14.97;61.25;97434.66;5070609;28;19908;-78
2024/02/12 11:01:27;;;;;;;;;;;;;;;15.09;57.72;97443.81;5070269;28;19915;-77
2024/02/12 11:03:52;;;;;;;;;;;;;;;15.15;57.13;97449.41;5070130;28;20002;-77
2024/02/12 11:06:18;;;;;;;;;;;;;;;15.03;57.31;97443.78;5068179;28;20003;-78
2024/02/12 11:08:44;;;;;;;;;;;;;;;15.11;56.02;97435.75;5052429;28;19927;-77
2024/02/12 11:11:23;;;;;;;;;;;;;;;15.15;57.00;97436.25;5070520;28;19962;-78
2024/02/12 11:13:52;;;;;;;;;;;;;;;15.00;57.16;97428.09;5070594;28;19961;-78
2024/02/12 11:16:18;;;;;;;;;;;;;;;14.97;57.86;97426.31;5070372;28;20403;-78
2024/02/12 11:18:44;;;;;;;;;;;;;;;14.89;56.96;97427.28;5070331;28;19923;-77
2024/02/12 11:21:10;;;;;;;;;;;;;;;14.95;56.48;97419.69;5071936;28;20001;-77
2024/02/12 11:23:40;;;;;;;;;;;;;;;15.00;55.24;97416.22;5071666;28;20388;-77
2024/02/12 11:26:05;;;;;;;;;;;;;;;14.94;55.42;97409.84;5053565;28;19920;-78
2024/02/12 11:28:31;;;;;;;;;;;;;;;14.89;58.03;97405.75;5071748;28;19966;-78
2024/02/12 11:30:57;;;;;;;;;;;;;;;15.03;60.74;97401.28;5070116;28;19995;-77
2024/02/12 11:33:25;;;;;;;;;;;;;;;15.21;57.04;97397.34;5053245;28;19916;-77
2024/02/12 11:36:01;;;;;;;;;;;;;;;15.27;57.41;97396.09;5071262;28;19919;-79
2024/02/12 11:38:26;;;;;;;;;;;;;;;15.29;56.05;97401.94;5070065;28;19920;-78
2024/02/12 11:40:57;;;;;;;;;;;;;;;15.30;57.93;97395.13;5070206;28;19909;-78
2024/02/12 11:43:23;;;;;;;;;;;;;;;15.37;61.31;97388.31;5070601;28;19908;-76
2024/02/12 11:45:56;;;;;;;;;;;;;;;15.48;58.95;97393.91;5052602;28;20373;-79
2024/02/12 11:48:26;;;;;;;;;;;;;;;15.34;55.78;97400.44;5071142;28;19912;-78
2024/02/12 11:50:52;;;;;;;;;;;;;;;15.36;57.88;97395.91;5078184;28;19913;-76
2024/02/12 11:53:18;;;;;;;;;;;;;;;15.42;57.67;97393.91;5071639;28;19916;-77
2024/02/12 11:55:44;;;;;;;;;;;;;;;15.42;56.34;97395.91;5058294;28;19923;-79
2024/02/12 11:58:13;;;;;;;;;;;;;;;15.44;55.42;97387.81;5065246;28;19931;-76
2024/02/12 12:00:38;;;;;;;;;;;;;;;15.40;53.43;97390.06;5044342;28;20007;-77
2024/02/12 12:03:04;;;;;;;;;;;;;;;15.42;53.76;97384.78;5052778;28;19962;-78
2024/02/12 12:05:30;;;;;;;;;;;;;;;15.48;54.59;97383.53;5071254;28;19916;-79
2024/02/12 12:07:56;;;;;;;;;;;;;;;15.56;53.51;97388.63;5077002;28;20311;-77
2024/02/12 12:10:26;;;;;;;;;;;;;;;15.67;54.42;97378.28;5074742;28;19925;-77
2024/02/12 12:12:51;;;;;;;;;;;;;;;15.68;53.66;97377.03;5076081;28;19912;-77
2024/02/12 12:15:17;;;;;;;;;;;;;;;15.63;51.90;97379.78;5085248;28;19917;-77
2024/02/12 12:17:43;;;;;;;;;;;;;;;15.65;52.36;97380.06;5084519;28;19959;-79
2024/02/12 12:20:12;;;;;;;;;;;;;;;15.70;52.60;97374.50;5076083;28;20368;-79
2024/02/12 12:22:38;;;;;;;;;;;;;;;15.73;51.96;97367.19;5075922;28;19934;-80
2024/02/12 12:25:04;;;;;;;;;;;;;;;15.77;53.09;97360.09;5075958;28;20015;-79
2024/02/12 12:27:30;;;;;;;;;;;;;;;15.64;52.81;97364.63;5075967;28;19912;-79
2024/02/12 12:29:57;;;;;;;;;;;;;;;15.81;52.98;97357.03;5074840;28;19913;-78
2024/02/12 12:32:25;;;;;;;;;;;;;;;15.79;51.43;97351.25;5073996;28;19978;-78
2024/02/12 12:34:51;;;;;;;;;;;;;;;15.84;52.36;97354.03;5073691;28;19912;-77
2024/02/12 12:37:16;;;;;;;;;;;;;;;15.97;52.06;97358.34;5057121;28;19912;-78
2024/02/12 12:39:42;;;;;;;;;;;;;;;15.83;49.60;97354.53;5073424;28;19912;-78
2024/02/12 12:42:07;;;;;;;;;;;;;;;15.87;50.02;97346.66;5073499;28;20368;-78
2024/02/12 12:44:34;;;;;;;;;;;;;;;15.90;49.94;97353.28;5060063;28;19912;-79
2024/02/12 12:47:00;;;;;;;;;;;;;;;16.04;48.43;97350.22;5073267;28;19926;-79
2024/02/12 12:49:25;;;;;;;;;;;;;;;16.10;49.64;97345.41;5073344;28;19916;-78
2024/02/12 12:51:52;;;;;;;;;;;;;;;16.03;47.89;97354.31;5062400;28;20384;-78
2024/02/12 12:54:17;;;;;;;;;;;;;;;16.06;47.23;97350.50;5072402;28;20428;-78